createdAt,value
2022-11-21T00:01:53.202Z,3.70
2022-11-21T00:04:22.930Z,3.40
2022-11-21T00:06:53.093Z,3.40
2022-11-21T00:09:23.010Z,3.60
2022-11-21T00:11:53.098Z,3.40
2022-11-21T00:14:23.146Z,3.30
2022-11-21T00:16:57.167Z,4.00
2022-11-21T00:19:27.590Z,3.40
2022-11-21T00:21:57.683Z,3.00
2022-11-21T00:24:28.046Z,2.70
2022-11-21T00:26:58.592Z,2.60
2022-11-21T00:29:29.181Z,2.40
2022-11-21T00:31:59.443Z,2.10
2022-11-21T00:34:29.669Z,2.70
2022-11-21T00:37:00.376Z,2.50
2022-11-21T00:39:32.802Z,2.70
2022-11-21T00:42:03.127Z,2.50
2022-11-21T00:44:32.050Z,2.50
2022-11-21T00:47:02.447Z,2.20
2022-11-21T00:49:32.843Z,2.10
2022-11-21T00:52:03.337Z,2.50
2022-11-21T00:54:33.327Z,2.20
2022-11-21T00:57:03.167Z,2.90
2022-11-21T00:59:34.011Z,2.10
2022-11-21T01:02:05.775Z,1.60
2022-11-21T01:04:36.087Z,1.60
2022-11-21T01:07:06.824Z,1.00
2022-11-21T01:09:37.200Z,1.10
2022-11-21T01:12:07.829Z,1.00
2022-11-21T01:14:37.855Z,0.60
2022-11-21T01:17:07.796Z,0.90
2022-11-21T01:19:38.062Z,0.50
2022-11-21T01:22:08.775Z,0.70
2022-11-21T01:24:39.017Z,1.00
2022-11-21T01:27:08.698Z,0.60
2022-11-21T01:29:39.349Z,0.80
2022-11-21T01:32:09.689Z,1.00
2022-11-21T01:34:38.842Z,0.90
2022-11-21T01:37:09.153Z,1.20
2022-11-21T01:39:39.626Z,0.80
2022-11-21T01:42:14.090Z,0.50
2022-11-21T01:44:53.808Z,0.40
2022-11-21T01:47:24.118Z,0.50
2022-11-21T01:50:12.917Z,0.60
2022-11-21T01:52:43.649Z,0.40
2022-11-21T01:55:14.044Z,0.70
2022-11-21T01:57:48.917Z,1.00
2022-11-21T02:00:37.425Z,2.00
2022-11-21T02:03:13.772Z,1.90
2022-11-21T02:05:43.886Z,1.00
2022-11-21T02:08:21.048Z,1.00
2022-11-21T02:11:36.694Z,0.70
2022-11-21T02:14:07.439Z,0.80
2022-11-21T02:16:37.663Z,1.30
2022-11-21T02:19:16.304Z,1.20
2022-11-21T02:22:08.620Z,1.00
2022-11-21T02:24:58.879Z,1.00
2022-11-21T02:27:30.136Z,1.00
2022-11-21T02:30:02.343Z,1.10
2022-11-21T02:32:37.753Z,1.00
2022-11-21T02:35:09.400Z,1.00
2022-11-21T02:37:39.904Z,1.30
2022-11-21T02:40:23.167Z,0.80
2022-11-21T02:43:01.585Z,1.10
2022-11-21T02:45:41.368Z,1.00
2022-11-21T02:48:12.342Z,1.10
2022-11-21T02:50:47.931Z,1.20
2022-11-21T02:53:19.842Z,1.30
2022-11-21T02:55:49.897Z,1.90
2022-11-21T02:58:20.460Z,2.30
2022-11-21T03:00:50.826Z,1.90
2022-11-21T03:03:21.568Z,1.50
2022-11-21T03:05:52.111Z,1.50
2022-11-21T03:08:22.276Z,1.60
2022-11-21T03:10:51.832Z,1.70
2022-11-21T03:13:21.883Z,1.80
2022-11-21T03:15:52.405Z,7.20
2022-11-21T03:18:22.551Z,3.20
2022-11-21T03:20:53.044Z,1.70
2022-11-21T03:23:23.066Z,0.90
2022-11-21T03:25:53.326Z,0.90
2022-11-21T03:28:23.566Z,0.60
2022-11-21T03:30:53.742Z,0.80
2022-11-21T03:33:23.871Z,1.00
2022-11-21T03:35:54.027Z,0.90
2022-11-21T03:38:24.057Z,0.80
2022-11-21T03:40:54.462Z,0.90
2022-11-21T03:43:24.541Z,2.30
2022-11-21T03:45:54.150Z,1.90
2022-11-21T03:48:23.700Z,1.00
2022-11-21T03:50:53.954Z,1.10
2022-11-21T03:53:22.781Z,1.20
2022-11-21T03:55:51.672Z,1.20
2022-11-21T03:58:21.920Z,1.80
2022-11-21T04:00:51.751Z,1.50
2022-11-21T04:03:22.007Z,1.80
2022-11-21T04:05:52.171Z,1.70
2022-11-21T04:08:22.239Z,2.60
2022-11-21T04:10:53.589Z,1.50
2022-11-21T04:13:24.597Z,1.70
2022-11-21T04:15:54.556Z,1.40
2022-11-21T04:18:24.915Z,1.40
2022-11-21T04:21:02.574Z,1.50
2022-11-21T04:23:33.198Z,1.30
2022-11-21T04:26:04.507Z,1.20
2022-11-21T04:28:34.947Z,1.00
2022-11-21T04:31:11.057Z,0.70
2022-11-21T04:33:42.146Z,1.00
2022-11-21T04:36:11.276Z,1.30
2022-11-21T04:38:42.487Z,1.60
2022-11-21T04:41:12.856Z,1.90
2022-11-21T04:43:44.695Z,1.90
2022-11-21T04:46:13.483Z,2.40
2022-11-21T04:48:44.002Z,2.30
2022-11-21T04:51:14.242Z,3.80
2022-11-21T04:53:44.738Z,3.00
2022-11-21T04:56:16.884Z,3.70
2022-11-21T04:58:47.397Z,2.70
2022-11-21T05:01:18.000Z,4.00
2022-11-21T05:03:48.510Z,3.70
2022-11-21T05:06:18.790Z,3.60
2022-11-21T05:08:54.001Z,3.80
2022-11-21T05:11:45.911Z,5.60
2022-11-21T05:14:16.301Z,16.90
2022-11-21T05:16:46.578Z,11.10
2022-11-21T05:19:16.953Z,12.90
2022-11-21T05:21:47.425Z,15.40
2022-11-21T05:24:17.729Z,7.30
2022-11-21T05:26:47.926Z,3.30
2022-11-21T05:29:22.750Z,3.40
2022-11-21T05:31:57.257Z,5.10
2022-11-21T05:34:28.182Z,4.30
2022-11-21T05:37:01.400Z,3.50
2022-11-21T05:39:31.915Z,5.50
2022-11-21T05:42:03.338Z,5.60
2022-11-21T05:44:33.516Z,6.10
2022-11-21T05:47:03.577Z,4.60
2022-11-21T05:49:33.523Z,6.90
2022-11-21T05:52:04.091Z,5.90
2022-11-21T05:54:34.424Z,8.50
2022-11-21T05:57:06.005Z,9.90
2022-11-21T05:59:36.004Z,3.70
2022-11-21T06:02:24.879Z,3.20
2022-11-21T06:04:58.748Z,3.00
2022-11-21T06:07:31.175Z,3.60
2022-11-21T06:10:00.808Z,2.70
2022-11-21T06:12:32.711Z,2.30
2022-11-21T06:15:02.825Z,2.20
2022-11-21T06:17:33.630Z,2.40
2022-11-21T06:20:05.201Z,1.70
2022-11-21T06:22:35.347Z,2.00
2022-11-21T06:25:04.305Z,1.80
2022-11-21T06:27:34.765Z,1.60
2022-11-21T06:30:04.940Z,1.40
2022-11-21T06:32:38.616Z,1.00
2022-11-21T06:35:08.304Z,1.00
2022-11-21T06:37:38.649Z,1.30
2022-11-21T06:40:09.261Z,1.30
2022-11-21T06:42:39.088Z,1.40
2022-11-21T06:45:08.992Z,2.50
2022-11-21T06:47:38.969Z,1.30
2022-11-21T06:50:09.937Z,1.60
2022-11-21T06:52:39.878Z,1.60
2022-11-21T06:55:11.112Z,1.50
2022-11-21T06:57:41.147Z,1.50
2022-11-21T07:00:11.755Z,1.20
2022-11-21T07:02:42.086Z,1.10
2022-11-21T07:05:14.799Z,1.60
2022-11-21T07:07:45.753Z,1.80
2022-11-21T07:10:17.278Z,2.40
2022-11-21T07:13:07.185Z,1.20
2022-11-21T07:15:37.201Z,1.00
2022-11-21T07:18:07.423Z,1.10
2022-11-21T07:20:37.061Z,1.30
2022-11-21T07:23:07.639Z,1.80
2022-11-21T07:25:37.047Z,1.10
2022-11-21T07:28:08.674Z,1.00
2022-11-21T07:30:39.187Z,1.50
2022-11-21T07:33:09.816Z,1.10
2022-11-21T07:35:39.407Z,1.60
2022-11-21T07:38:10.150Z,1.80
2022-11-21T07:40:40.520Z,1.60
2022-11-21T07:43:13.679Z,1.70
2022-11-21T07:45:43.711Z,1.10
2022-11-21T07:48:16.141Z,1.50
2022-11-21T07:50:46.392Z,1.80
2022-11-21T07:53:16.415Z,1.50
2022-11-21T07:55:46.848Z,1.90
2022-11-21T07:58:17.935Z,1.80
2022-11-21T08:00:47.940Z,2.60
2022-11-21T08:03:17.978Z,2.50
2022-11-21T08:05:48.074Z,1.90
2022-11-21T08:08:18.222Z,2.20
2022-11-21T08:10:48.253Z,1.90
2022-11-21T08:13:18.185Z,1.70
2022-11-21T08:15:48.220Z,2.70
2022-11-21T08:18:19.759Z,3.20
2022-11-21T08:20:49.878Z,2.80
2022-11-21T08:23:20.199Z,2.30
2022-11-21T08:25:52.364Z,2.80
2022-11-21T08:28:22.486Z,3.50
2022-11-21T08:30:52.653Z,2.30
2022-11-21T08:33:26.127Z,2.60
2022-11-21T08:35:56.155Z,3.30
2022-11-21T08:38:26.100Z,2.40
2022-11-21T08:41:17.825Z,7.20
2022-11-21T08:43:48.129Z,3.80
2022-11-21T08:46:17.814Z,2.50
2022-11-21T08:48:47.423Z,1.90
2022-11-21T08:51:17.799Z,2.20
2022-11-21T08:53:47.748Z,1.90
2022-11-21T08:56:17.838Z,1.50
2022-11-21T08:58:47.902Z,1.30
2022-11-21T09:01:18.078Z,1.20
2022-11-21T09:03:48.281Z,1.10
2022-11-21T09:06:18.547Z,2.70
2022-11-21T09:08:48.488Z,2.90
2022-11-21T09:11:18.545Z,1.90
2022-11-21T09:14:09.577Z,2.00
2022-11-21T09:17:02.228Z,2.20
2022-11-21T09:19:32.971Z,1.10
2022-11-21T09:22:01.774Z,1.80
2022-11-21T09:24:32.660Z,2.50
2022-11-21T09:27:03.014Z,2.70
2022-11-21T09:29:33.319Z,2.30
2022-11-21T09:32:03.625Z,1.80
2022-11-21T09:34:33.699Z,3.60
2022-11-21T09:37:04.338Z,1.90
2022-11-21T09:39:34.684Z,5.20
2022-11-21T09:42:07.451Z,8.90
2022-11-21T09:44:48.245Z,9.30
2022-11-21T09:47:46.278Z,2.40
2022-11-21T09:50:16.700Z,0.60
2022-11-21T09:52:55.663Z,0.80
2022-11-21T09:55:38.431Z,0.70
2022-11-21T09:58:35.424Z,0.90
2022-11-21T10:01:06.081Z,1.00
2022-11-21T10:03:47.559Z,1.00
2022-11-21T10:06:24.639Z,1.80
2022-11-21T10:09:24.258Z,1.40
2022-11-21T10:12:40.710Z,2.70
2022-11-21T10:15:39.645Z,2.00
2022-11-21T10:18:31.476Z,0.90
2022-11-21T10:21:19.865Z,0.90
2022-11-21T10:24:23.167Z,0.90
2022-11-21T10:27:03.844Z,1.70
2022-11-21T10:29:42.315Z,0.80
2022-11-21T10:32:39.794Z,1.50
2022-11-21T10:35:31.427Z,4.10
2022-11-21T10:38:03.655Z,3.10
2022-11-21T10:41:05.821Z,3.20
2022-11-21T10:44:25.238Z,2.80
2022-11-21T10:47:01.994Z,1.00
2022-11-21T10:49:34.940Z,3.50
2022-11-21T10:52:24.986Z,1.60
2022-11-21T10:55:14.859Z,0.70
2022-11-21T10:57:47.721Z,1.30
2022-11-21T11:00:25.893Z,1.80
2022-11-21T11:05:32.101Z,0.50
2022-11-21T11:08:13.537Z,1.30
2022-11-21T11:11:01.848Z,1.60
2022-11-21T11:13:51.190Z,2.70
2022-11-21T11:16:22.761Z,3.00
2022-11-21T11:18:59.448Z,1.10
2022-11-21T11:21:47.362Z,1.90
2022-11-21T11:24:22.387Z,4.00
2022-11-21T11:26:58.686Z,1.90
2022-11-21T11:29:35.668Z,1.40
2022-11-21T11:32:21.146Z,4.20
2022-11-21T11:35:00.009Z,0.90
2022-11-21T11:37:41.488Z,0.50
2022-11-21T11:40:24.991Z,0.50
2022-11-21T11:43:47.071Z,0.40
2022-11-21T11:47:02.152Z,0.80
2022-11-21T11:50:05.202Z,1.30
2022-11-21T11:52:45.501Z,2.20
2022-11-21T11:55:27.581Z,1.70
2022-11-21T11:58:01.848Z,3.20
2022-11-21T12:00:51.636Z,2.00
2022-11-21T12:03:44.295Z,2.80
2022-11-21T12:07:41.152Z,0.70
2022-11-21T12:09:46.437Z,0.60
2022-11-21T12:12:42.389Z,0.50
2022-11-21T12:15:47.065Z,0.50
2022-11-21T12:18:50.557Z,0.90
2022-11-21T12:21:21.379Z,0.60
2022-11-21T12:23:58.501Z,1.00
2022-11-21T12:26:37.346Z,1.70
2022-11-21T12:29:33.268Z,1.80
2022-11-21T12:32:20.045Z,1.20
2022-11-21T12:35:20.050Z,1.00
2022-11-21T12:38:05.128Z,2.70
2022-11-21T12:41:48.169Z,7.20
2022-11-21T12:44:23.640Z,2.80
2022-11-21T12:47:14.622Z,2.30
2022-11-21T12:50:21.710Z,2.00
2022-11-21T12:53:23.975Z,2.60
2022-11-21T12:56:03.903Z,3.50
2022-11-21T12:58:43.010Z,2.40
2022-11-21T13:01:28.811Z,2.70
2022-11-21T13:04:06.512Z,3.30
2022-11-21T13:06:45.064Z,2.40
2022-11-21T13:09:21.164Z,2.00
2022-11-21T13:12:05.850Z,1.60
2022-11-21T13:14:45.209Z,1.40
2022-11-21T13:17:24.570Z,1.00
2022-11-21T13:20:01.131Z,0.80
2022-11-21T13:22:36.841Z,1.50
2022-11-21T13:25:33.175Z,0.90
2022-11-21T13:28:18.975Z,0.90
2022-11-21T13:30:51.666Z,1.30
2022-11-21T13:33:37.764Z,1.80
2022-11-21T13:36:37.521Z,3.80
2022-11-21T13:39:08.367Z,3.90
2022-11-21T13:42:20.647Z,3.90
2022-11-21T13:44:51.670Z,4.20
2022-11-21T13:47:30.544Z,4.10
2022-11-21T13:50:30.854Z,5.20
2022-11-21T13:53:10.753Z,5.70
2022-11-21T13:56:05.079Z,4.00
2022-11-21T13:59:04.148Z,4.70
2022-11-21T14:01:45.721Z,5.20
2022-11-21T14:04:30.790Z,6.10
2022-11-21T14:07:28.574Z,5.60
2022-11-21T14:10:02.706Z,5.20
2022-11-21T14:12:38.309Z,5.80
2022-11-21T14:15:25.554Z,5.20
2022-11-21T14:17:59.217Z,5.50
2022-11-21T14:20:36.734Z,5.90
2022-11-21T14:23:23.561Z,6.20
2022-11-21T14:25:58.066Z,6.40
2022-11-21T14:28:29.938Z,9.20
2022-11-21T14:31:07.612Z,7.40
2022-11-21T14:33:40.150Z,6.90
2022-11-21T14:36:16.846Z,6.90
2022-11-21T14:39:07.506Z,7.90
2022-11-21T14:41:43.490Z,7.80
2022-11-21T14:44:15.721Z,6.60
2022-11-21T14:46:47.459Z,8.00
2022-11-21T14:49:22.212Z,9.40
2022-11-21T14:52:19.036Z,10.40
2022-11-21T14:57:47.712Z,13.20
2022-11-21T15:00:57.521Z,9.30
2022-11-21T15:03:24.501Z,9.40
2022-11-21T15:06:07.836Z,8.60
2022-11-21T15:11:51.863Z,12.50
2022-11-21T15:14:36.729Z,12.70
2022-11-21T15:17:14.342Z,13.10
2022-11-21T15:19:47.206Z,14.20
2022-11-21T15:22:29.553Z,14.80
2022-11-21T15:25:25.354Z,14.20
2022-11-21T15:28:02.720Z,14.70
2022-11-21T15:30:36.357Z,15.20
2022-11-21T15:33:19.584Z,15.90
2022-11-21T15:35:55.109Z,15.20
2022-11-21T15:38:45.131Z,20.40
2022-11-21T15:41:15.771Z,16.30
2022-11-21T15:43:51.501Z,15.60
2022-11-21T15:46:27.428Z,15.80
2022-11-21T15:49:31.024Z,12.60
2022-11-21T15:52:06.937Z,13.80
2022-11-21T15:54:41.461Z,18.70
2022-11-21T15:57:16.437Z,21.70
2022-11-21T15:59:46.530Z,42.80
2022-11-21T16:02:16.978Z,36.80
2022-11-21T16:04:47.009Z,49.50
2022-11-21T16:07:17.604Z,43.30
2022-11-21T16:09:50.145Z,35.30
2022-11-21T16:12:22.309Z,30.70
2022-11-21T16:14:52.765Z,23.80
2022-11-21T16:17:23.155Z,26.90
2022-11-21T16:19:53.191Z,18.90
2022-11-21T16:22:23.695Z,22.10
2022-11-21T16:24:54.181Z,17.70
2022-11-21T16:27:24.231Z,21.00
2022-11-21T16:29:53.033Z,19.10
2022-11-21T16:32:26.810Z,31.60
2022-11-21T16:34:58.920Z,27.00
2022-11-21T16:37:31.372Z,20.00
2022-11-21T16:40:00.949Z,15.20
2022-11-21T16:42:31.119Z,12.20
2022-11-21T16:45:01.174Z,18.70
2022-11-21T16:47:31.501Z,19.10
2022-11-21T16:50:01.494Z,15.20
2022-11-21T16:52:36.047Z,14.80
2022-11-21T16:55:06.938Z,17.00
2022-11-21T16:57:37.351Z,13.80
2022-11-21T17:00:08.164Z,15.10
2022-11-21T17:02:38.850Z,16.00
2022-11-21T17:05:09.124Z,19.40
2022-11-21T17:07:39.242Z,26.90
2022-11-21T17:10:09.910Z,12.30
2022-11-21T17:12:41.106Z,12.00
2022-11-21T17:15:14.284Z,20.00
2022-11-21T17:17:44.797Z,23.10
2022-11-21T17:20:14.567Z,21.20
2022-11-21T17:22:45.198Z,25.70
2022-11-21T17:25:15.664Z,15.60
2022-11-21T17:27:47.145Z,21.40
2022-11-21T17:30:19.394Z,15.40
2022-11-21T17:32:49.735Z,11.90
2022-11-21T17:35:19.717Z,11.20
2022-11-21T17:37:50.040Z,12.10
2022-11-21T17:40:20.173Z,12.10
2022-11-21T17:42:50.125Z,13.60
2022-11-21T17:45:20.171Z,12.60
2022-11-21T17:47:50.932Z,14.80
2022-11-21T17:50:21.530Z,13.40
2022-11-21T17:52:51.659Z,10.50
2022-11-21T17:55:21.765Z,7.40
2022-11-21T17:57:52.123Z,7.60
2022-11-21T18:00:22.240Z,9.50
2022-11-21T18:02:51.486Z,10.00
2022-11-21T18:05:22.366Z,11.50
2022-11-21T18:07:53.129Z,24.10
2022-11-21T18:10:42.255Z,20.40
2022-11-21T18:13:13.486Z,18.70
2022-11-21T18:15:44.061Z,19.40
2022-11-21T18:18:16.095Z,18.40
2022-11-21T18:20:46.446Z,6.50
2022-11-21T18:23:16.540Z,4.00
2022-11-21T18:25:47.458Z,13.50
2022-11-21T18:28:17.701Z,13.80
2022-11-21T18:30:50.711Z,38.70
2022-11-21T18:33:20.400Z,14.40
2022-11-21T18:35:50.755Z,34.50
2022-11-21T18:38:46.885Z,54.80
2022-11-21T18:41:30.456Z,31.90
2022-11-21T18:44:05.473Z,29.30
2022-11-21T18:46:38.176Z,37.20
2022-11-21T18:49:08.594Z,30.60
2022-11-21T18:51:39.227Z,44.20
2022-11-21T18:54:11.391Z,32.10
2022-11-21T18:56:42.089Z,26.90
2022-11-21T18:59:12.342Z,45.30
2022-11-21T19:01:42.822Z,43.70
2022-11-21T19:04:13.298Z,43.70
2022-11-21T19:06:43.814Z,46.40
2022-11-21T19:09:15.333Z,46.90
2022-11-21T19:11:45.864Z,41.90
2022-11-21T19:14:15.390Z,41.90
2022-11-21T19:16:45.366Z,43.90
2022-11-21T19:22:07.164Z,40.70
2022-11-21T19:24:40.319Z,31.90
2022-11-21T19:27:14.145Z,31.10
2022-11-21T19:29:44.196Z,43.60
2022-11-21T19:32:15.758Z,49.20
2022-11-21T19:34:45.682Z,47.50
2022-11-21T19:37:18.265Z,44.30
2022-11-21T19:39:51.654Z,40.90
2022-11-21T19:42:24.078Z,39.10
2022-11-21T19:44:54.196Z,41.40
2022-11-21T19:47:24.341Z,43.10
2022-11-21T19:49:54.339Z,41.80
2022-11-21T19:52:28.173Z,37.20
2022-11-21T19:54:58.754Z,36.00
2022-11-21T19:57:28.996Z,35.80
2022-11-21T20:00:00.475Z,55.30
2022-11-21T20:02:31.022Z,55.30
2022-11-21T20:05:01.341Z,54.50
2022-11-21T20:07:33.758Z,52.70
2022-11-21T20:10:04.670Z,32.30
2022-11-21T20:12:36.853Z,28.40
2022-11-21T20:15:07.749Z,25.80
2022-11-21T20:17:38.103Z,31.30
2022-11-21T20:20:09.124Z,26.90
2022-11-21T20:22:39.474Z,29.70
2022-11-21T20:25:10.093Z,30.20
2022-11-21T20:27:40.594Z,30.50
2022-11-21T20:30:11.564Z,30.90
2022-11-21T20:32:41.537Z,34.70
2022-11-21T20:35:11.986Z,28.50
2022-11-21T20:37:42.300Z,17.50
2022-11-21T20:40:12.992Z,22.90
2022-11-21T20:42:41.912Z,18.00
2022-11-21T20:46:06.512Z,25.10
2022-11-21T20:48:10.049Z,26.20
2022-11-21T20:51:34.975Z,28.20
2022-11-21T20:56:25.283Z,23.90
2022-11-21T20:58:55.258Z,23.60
2022-11-21T21:01:25.422Z,23.10
2022-11-21T21:03:57.120Z,20.70
2022-11-21T21:06:27.184Z,20.30
2022-11-21T21:08:57.599Z,21.20
2022-11-21T21:14:18.690Z,20.10
2022-11-21T21:16:49.109Z,19.90
2022-11-21T21:19:18.781Z,20.00
2022-11-21T21:21:48.977Z,20.60
2022-11-21T21:24:19.402Z,19.50
2022-11-21T21:26:50.439Z,19.90
2022-11-21T21:29:21.598Z,18.90
2022-11-21T21:31:52.610Z,19.40
2022-11-21T21:34:23.648Z,18.50
2022-11-21T21:36:53.712Z,20.60
2022-11-21T21:39:23.303Z,21.30
2022-11-21T21:41:52.878Z,19.40
2022-11-21T21:44:25.943Z,18.70
2022-11-21T21:46:59.102Z,19.30
2022-11-21T21:49:29.943Z,18.80
2022-11-21T21:51:59.917Z,20.00
2022-11-21T21:54:31.340Z,19.30
2022-11-21T21:57:02.166Z,17.90
2022-11-21T21:59:33.506Z,18.40
2022-11-21T22:02:03.813Z,18.40
2022-11-21T22:04:34.274Z,18.20
2022-11-21T22:07:06.002Z,16.50
2022-11-21T22:09:36.383Z,16.60
2022-11-21T22:12:06.595Z,17.00
2022-11-21T22:14:36.876Z,16.60
2022-11-21T22:17:07.159Z,18.20
2022-11-21T22:19:37.389Z,16.40
2022-11-21T22:22:07.424Z,16.80
2022-11-21T22:24:39.576Z,16.50
2022-11-21T22:27:10.621Z,16.30
2022-11-21T22:29:40.641Z,17.90
2022-11-21T22:32:14.125Z,15.90
2022-11-21T22:34:48.367Z,15.90
2022-11-21T22:37:17.957Z,14.60
2022-11-21T22:39:46.753Z,12.80
2022-11-21T22:42:17.012Z,12.20
2022-11-21T22:44:47.140Z,14.50
2022-11-21T22:47:17.111Z,14.30
2022-11-21T22:49:47.115Z,21.60
2022-11-21T22:52:17.541Z,20.60
2022-11-21T22:54:47.646Z,29.80
2022-11-21T22:57:18.159Z,24.90
2022-11-21T22:59:48.202Z,21.90
2022-11-21T23:02:18.808Z,21.20
2022-11-21T23:04:47.758Z,21.10
2022-11-21T23:07:16.606Z,22.30
2022-11-21T23:09:46.937Z,20.50
2022-11-21T23:12:17.168Z,20.90
2022-11-21T23:14:47.616Z,17.20
2022-11-21T23:17:18.086Z,27.20
2022-11-21T23:19:48.292Z,29.40
2022-11-21T23:22:18.312Z,25.40
2022-11-21T23:24:48.659Z,20.60
2022-11-21T23:27:18.773Z,20.30
2022-11-21T23:29:49.138Z,20.90
2022-11-21T23:32:19.471Z,21.30
2022-11-21T23:34:49.864Z,24.90
2022-11-21T23:37:19.450Z,20.70
2022-11-21T23:39:49.743Z,22.90
2022-11-21T23:42:20.445Z,22.40
2022-11-21T23:44:50.292Z,23.00
2022-11-21T23:47:19.703Z,22.00
2022-11-21T23:49:50.319Z,23.80
2022-11-21T23:52:19.721Z,25.00
2022-11-21T23:54:51.564Z,19.40
2022-11-21T23:57:22.087Z,17.30
2022-11-21T23:59:52.224Z,16.10
